sensor_id;sensor_type;location;lat;lon;timestamp;pressure;altitude;pressure_sealevel;temperature;humidity
43503;BME280;29098;48.184;16.298;2024-03-07T00:00:54;99648.47;;;6.63;94.04
43503;BME280;29098;48.184;16.298;2024-03-07T00:03:21;99639.47;;;6.47;94.87
43503;BME280;29098;48.184;16.298;2024-03-07T00:05:49;99672.59;;;6.66;95.01
43503;BME280;29098;48.184;16.298;2024-03-07T00:08:15;99678.19;;;6.53;97.12
43503;BME280;29098;48.184;16.298;2024-03-07T00:10:40;99662.59;;;6.52;97.09
43503;BME280;29098;48.184;16.298;2024-03-07T00:13:06;99642.84;;;6.39;98.00
43503;BME280;29098;48.184;16.298;2024-03-07T00:15:33;99653.75;;;6.35;99.90
43503;BME280;29098;48.184;16.298;2024-03-07T00:17:58;99636.59;;;6.22;100.00
43503;BME280;29098;48.184;16.298;2024-03-07T00:20:25;99623.94;;;6.18;100.00
43503;BME280;29098;48.184;16.298;2024-03-07T00:22:51;99652.66;;;6.09;100.00
43503;BME280;29098;48.184;16.298;2024-03-07T00:25:16;99641.84;;;6.22;100.00
43503;BME280;29098;48.184;16.298;2024-03-07T00:27:44;99655.59;;;6.24;100.00
43503;BME280;29098;48.184;16.298;2024-03-07T00:30:10;99618.22;;;6.04;100.00
43503;BME280;29098;48.184;16.298;2024-03-07T00:32:38;99681.78;;;6.24;100.00
43503;BME280;29098;48.184;16.298;2024-03-07T00:35:06;99638.06;;;6.07;100.00
43503;BME280;29098;48.184;16.298;2024-03-07T00:37:32;99614.94;;;5.92;100.00
43503;BME280;29098;48.184;16.298;2024-03-07T00:39:58;99615.13;;;6.19;100.00
43503;BME280;29098;48.184;16.298;2024-03-07T00:42:23;99661.38;;;6.28;100.00
43503;BME280;29098;48.184;16.298;2024-03-07T00:44:48;99604.75;;;5.89;100.00
43503;BME280;29098;48.184;16.298;2024-03-07T00:47:17;99625.63;;;6.09;100.00
43503;BME280;29098;48.184;16.298;2024-03-07T00:49:45;99669.88;;;6.30;100.00
43503;BME280;29098;48.184;16.298;2024-03-07T00:52:12;99656.16;;;6.18;100.00
43503;BME280;29098;48.184;16.298;2024-03-07T00:54:38;99640.56;;;6.26;100.00
43503;BME280;29098;48.184;16.298;2024-03-07T00:57:04;99656.97;;;6.28;100.00
43503;BME280;29098;48.184;16.298;2024-03-07T00:59:29;99619.03;;;6.33;100.00
43503;BME280;29098;48.184;16.298;2024-03-07T01:01:55;99635.22;;;6.46;100.00
43503;BME280;29098;48.184;16.298;2024-03-07T01:04:21;99611.00;;;6.16;100.00
43503;BME280;29098;48.184;16.298;2024-03-07T01:06:47;99626.31;;;6.11;100.00
43503;BME280;29098;48.184;16.298;2024-03-07T01:09:13;99587.22;;;5.99;100.00
43503;BME280;29098;48.184;16.298;2024-03-07T01:11:44;99641.94;;;6.30;100.00
43503;BME280;29098;48.184;16.298;2024-03-07T01:14:13;99589.19;;;5.97;100.00
43503;BME280;29098;48.184;16.298;2024-03-07T01:16:39;99617.22;;;6.15;100.00
43503;BME280;29098;48.184;16.298;2024-03-07T01:19:04;99604.03;;;6.07;100.00
43503;BME280;29098;48.184;16.298;2024-03-07T01:21:34;99602.09;;;6.09;100.00
43503;BME280;29098;48.184;16.298;2024-03-07T01:24:01;99582.66;;;6.01;100.00
43503;BME280;29098;48.184;16.298;2024-03-07T01:26:30;99626.78;;;6.52;100.00
43503;BME280;29098;48.184;16.298;2024-03-07T01:28:56;99661.91;;;6.32;100.00
43503;BME280;29098;48.184;16.298;2024-03-07T01:31:23;99598.88;;;6.15;100.00
43503;BME280;29098;48.184;16.298;2024-03-07T01:33:49;99567.84;;;5.92;100.00
43503;BME280;29098;48.184;16.298;2024-03-07T01:36:15;99621.47;;;6.16;100.00
43503;BME280;29098;48.184;16.298;2024-03-07T01:38:41;99590.38;;;6.13;100.00
43503;BME280;29098;48.184;16.298;2024-03-07T01:41:06;99631.59;;;6.29;100.00
43503;BME280;29098;48.184;16.298;2024-03-07T01:43:32;99628.38;;;6.07;100.00
43503;BME280;29098;48.184;16.298;2024-03-07T01:45:57;99597.78;;;5.80;100.00
43503;BME280;29098;48.184;16.298;2024-03-07T01:48:27;99602.56;;;5.84;100.00
43503;BME280;29098;48.184;16.298;2024-03-07T01:50:58;99597.78;;;5.80;100.00
43503;BME280;29098;48.184;16.298;2024-03-07T01:53:25;99638.31;;;6.03;100.00
43503;BME280;29098;48.184;16.298;2024-03-07T01:55:51;99565.22;;;5.64;100.00
43503;BME280;29098;48.184;16.298;2024-03-07T01:58:19;99605.81;;;5.96;100.00
43503;BME280;29098;48.184;16.298;2024-03-07T02:00:45;99620.94;;;6.12;100.00
43503;BME280;29098;48.184;16.298;2024-03-07T02:03:12;99565.38;;;5.62;100.00
43503;BME280;29098;48.184;16.298;2024-03-07T02:05:39;99623.47;;;5.94;100.00
43503;BME280;29098;48.184;16.298;2024-03-07T02:08:04;99584.47;;;5.73;100.00
43503;BME280;29098;48.184;16.298;2024-03-07T02:10:30;99587.16;;;5.81;100.00
43503;BME280;29098;48.184;16.298;2024-03-07T02:12:55;99625.81;;;5.97;100.00
43503;BME280;29098;48.184;16.298;2024-03-07T02:15:21;99568.81;;;5.53;100.00
43503;BME280;29098;48.184;16.298;2024-03-07T02:17:46;99614.94;;;5.92;100.00
43503;BME280;29098;48.184;16.298;2024-03-07T02:20:12;99591.88;;;5.78;100.00
43503;BME280;29098;48.184;16.298;2024-03-07T02:22:38;99616.19;;;5.88;100.00
43503;BME280;29098;48.184;16.298;2024-03-07T02:25:06;99611.81;;;5.79;100.00
43503;BME280;29098;48.184;16.298;2024-03-07T02:27:32;99610.41;;;5.84;100.00
43503;BME280;29098;48.184;16.298;2024-03-07T02:29:57;99571.84;;;5.58;100.00
43503;BME280;29098;48.184;16.298;2024-03-07T02:32:23;99605.25;;;5.74;100.00
43503;BME280;29098;48.184;16.298;2024-03-07T02:34:48;99569.38;;;5.57;100.00
43503;BME280;29098;48.184;16.298;2024-03-07T02:37:14;99601.28;;;5.98;100.00
43503;BME280;29098;48.184;16.298;2024-03-07T02:39:40;99609.97;;;5.89;100.00
43503;BME280;29098;48.184;16.298;2024-03-07T02:42:05;99548.34;;;5.48;100.00
43503;BME280;29098;48.184;16.298;2024-03-07T02:44:38;99582.81;;;5.72;100.00
43503;BME280;29098;48.184;16.298;2024-03-07T02:47:13;99569.38;;;5.57;100.00
43503;BME280;29098;48.184;16.298;2024-03-07T02:49:38;99607.50;;;5.97;100.00
43503;BME280;29098;48.184;16.298;2024-03-07T02:52:04;99587.72;;;5.85;100.00
43503;BME280;29098;48.184;16.298;2024-03-07T02:54:33;99615.75;;;6.02;100.00
43503;BME280;29098;48.184;16.298;2024-03-07T02:56:58;99553.56;;;5.48;100.00
43503;BME280;29098;48.184;16.298;2024-03-07T02:59:23;99622.13;;;5.90;100.00
43503;BME280;29098;48.184;16.298;2024-03-07T03:01:49;99608.41;;;5.78;100.00
43503;BME280;29098;48.184;16.298;2024-03-07T03:04:15;99607.56;;;5.78;100.00
43503;BME280;29098;48.184;16.298;2024-03-07T03:06:41;99589.81;;;5.71;100.00
43503;BME280;29098;48.184;16.298;2024-03-07T03:09:06;99580.53;;;5.59;100.00
43503;BME280;29098;48.184;16.298;2024-03-07T03:11:35;99575.41;;;5.67;100.00
43503;BME280;29098;48.184;16.298;2024-03-07T03:14:01;99614.66;;;5.95;100.00
43503;BME280;29098;48.184;16.298;2024-03-07T03:16:26;99592.16;;;5.74;100.00
43503;BME280;29098;48.184;16.298;2024-03-07T03:18:52;99575.50;;;5.75;100.00
43503;BME280;29098;48.184;16.298;2024-03-07T03:21:17;99635.78;;;5.84;100.00
43503;BME280;29098;48.184;16.298;2024-03-07T03:23:43;99631.31;;;5.94;100.00
43503;BME280;29098;48.184;16.298;2024-03-07T03:26:08;99586.63;;;5.78;100.00
43503;BME280;29098;48.184;16.298;2024-03-07T03:28:34;99620.84;;;5.94;100.00
43503;BME280;29098;48.184;16.298;2024-03-07T03:30:59;99624.31;;;5.95;100.00
43503;BME280;29098;48.184;16.298;2024-03-07T03:33:25;99627.63;;;5.87;100.00
43503;BME280;29098;48.184;16.298;2024-03-07T03:35:50;99587.41;;;5.60;100.00
43503;BME280;29098;48.184;16.298;2024-03-07T03:38:16;99643.97;;;5.99;100.00
43503;BME280;29098;48.184;16.298;2024-03-07T03:40:43;99560.47;;;5.78;100.00
43503;BME280;29098;48.184;16.298;2024-03-07T03:43:09;99583.78;;;5.99;100.00
43503;BME280;29098;48.184;16.298;2024-03-07T03:45:35;99622.63;;;6.03;100.00
43503;BME280;29098;48.184;16.298;2024-03-07T03:48:00;99629.03;;;6.19;99.49
43503;BME280;29098;48.184;16.298;2024-03-07T03:50:26;99589.34;;;5.86;100.00
43503;BME280;29098;48.184;16.298;2024-03-07T03:52:52;99585.75;;;5.87;98.18
43503;BME280;29098;48.184;16.298;2024-03-07T03:55:17;99643.44;;;5.95;97.31
43503;BME280;29098;48.184;16.298;2024-03-07T03:57:44;99584.22;;;5.66;98.85
43503;BME280;29098;48.184;16.298;2024-03-07T04:00:12;99635.00;;;6.01;98.61
43503;BME280;29098;48.184;16.298;2024-03-07T04:02:45;99591.53;;;5.90;97.39
43503;BME280;29098;48.184;16.298;2024-03-07T04:05:16;99604.19;;;5.95;96.24
43503;BME280;29098;48.184;16.298;2024-03-07T04:07:42;99554.47;;;5.67;96.66
43503;BME280;29098;48.184;16.298;2024-03-07T04:10:08;99583.91;;;5.69;96.67
43503;BME280;29098;48.184;16.298;2024-03-07T04:12:39;99582.25;;;5.78;95.43
43503;BME280;29098;48.184;16.298;2024-03-07T04:15:06;99615.16;;;6.09;95.23
43503;BME280;29098;48.184;16.298;2024-03-07T04:17:35;99636.34;;;6.15;95.66
43503;BME280;29098;48.184;16.298;2024-03-07T04:20:02;99624.31;;;5.95;96.06
43503;BME280;29098;48.184;16.298;2024-03-07T04:22:31;99592.19;;;5.93;95.35
43503;BME280;29098;48.184;16.298;2024-03-07T04:24:57;99606.34;;;6.10;94.52
43503;BME280;29098;48.184;16.298;2024-03-07T04:27:22;99588.38;;;5.87;95.49
43503;BME280;29098;48.184;16.298;2024-03-07T04:29:48;99557.19;;;5.75;94.21
43503;BME280;29098;48.184;16.298;2024-03-07T04:32:14;99623.88;;;5.99;95.55
43503;BME280;29098;48.184;16.298;2024-03-07T04:34:40;99616.00;;;6.09;95.20
43503;BME280;29098;48.184;16.298;2024-03-07T04:37:05;99631.31;;;6.04;94.22
43503;BME280;29098;48.184;16.298;2024-03-07T04:39:31;99632.81;;;6.07;94.19
43503;BME280;29098;48.184;16.298;2024-03-07T04:42:03;99571.47;;;5.81;94.16
43503;BME280;29098;48.184;16.298;2024-03-07T04:44:31;99576.16;;;5.78;93.75
43503;BME280;29098;48.184;16.298;2024-03-07T04:46:59;99572.59;;;5.79;93.66
43503;BME280;29098;48.184;16.298;2024-03-07T04:49:27;99566.59;;;5.68;93.39
43503;BME280;29098;48.184;16.298;2024-03-07T04:51:54;99626.13;;;6.22;92.92
43503;BME280;29098;48.184;16.298;2024-03-07T04:54:20;99577.72;;;5.70;93.71
43503;BME280;29098;48.184;16.298;2024-03-07T04:56:46;99597.63;;;5.81;93.53
43503;BME280;29098;48.184;16.298;2024-03-07T04:59:13;99630.69;;;6.20;92.61
43503;BME280;29098;48.184;16.298;2024-03-07T05:01:39;99576.03;;;5.79;93.07
43503;BME280;29098;48.184;16.298;2024-03-07T05:04:05;99610.50;;;6.02;92.87
43503;BME280;29098;48.184;16.298;2024-03-07T05:06:31;99572.25;;;5.92;92.51
43503;BME280;29098;48.184;16.298;2024-03-07T05:09:00;99606.66;;;5.97;94.42
43503;BME280;29098;48.184;16.298;2024-03-07T05:11:27;99593.59;;;5.87;94.20
43503;BME280;29098;48.184;16.298;2024-03-07T05:13:52;99611.34;;;5.93;94.09
43503;BME280;29098;48.184;16.298;2024-03-07T05:16:18;99624.00;;;6.08;93.91
43503;BME280;29098;48.184;16.298;2024-03-07T05:18:45;99633.38;;;6.00;94.70
43503;BME280;29098;48.184;16.298;2024-03-07T05:21:10;99584.56;;;5.81;93.95
43503;BME280;29098;48.184;16.298;2024-03-07T05:23:54;99611.34;;;5.93;94.64
43503;BME280;29098;48.184;16.298;2024-03-07T05:26:20;99599.16;;;5.84;94.18
43503;BME280;29098;48.184;16.298;2024-03-07T05:28:45;99618.75;;;5.98;93.42
43503;BME280;29098;48.184;16.298;2024-03-07T05:31:11;99616.06;;;5.89;94.55
43503;BME280;29098;48.184;16.298;2024-03-07T05:33:38;99604.41;;;5.74;95.20
43503;BME280;29098;48.184;16.298;2024-03-07T05:36:04;99625.28;;;5.94;95.22
43503;BME280;29098;48.184;16.298;2024-03-07T05:38:43;99613.03;;;5.84;94.79
43503;BME280;29098;48.184;16.298;2024-03-07T05:41:09;99663.94;;;6.00;95.01
43503;BME280;29098;48.184;16.298;2024-03-07T05:43:36;99660.09;;;6.04;93.28
43503;BME280;29098;48.184;16.298;2024-03-07T05:46:02;99605.53;;;5.99;91.09
43503;BME280;29098;48.184;16.298;2024-03-07T05:48:27;99622.13;;;5.90;92.12
43503;BME280;29098;48.184;16.298;2024-03-07T05:50:53;99636.41;;;5.96;92.03
43503;BME280;29098;48.184;16.298;2024-03-07T05:53:19;99665.56;;;6.11;92.42
43503;BME280;29098;48.184;16.298;2024-03-07T05:55:44;99636.94;;;5.99;93.03
43503;BME280;29098;48.184;16.298;2024-03-07T05:58:11;99677.41;;;6.15;93.12
43503;BME280;29098;48.184;16.298;2024-03-07T06:00:36;99626.56;;;5.80;92.20
43503;BME280;29098;48.184;16.298;2024-03-07T06:03:04;99595.78;;;5.64;92.62
43503;BME280;29098;48.184;16.298;2024-03-07T06:05:30;99670.56;;;6.04;92.64
43503;BME280;29098;48.184;16.298;2024-03-07T06:07:56;99603.22;;;5.58;90.68
43503;BME280;29098;48.184;16.298;2024-03-07T06:10:24;99651.72;;;5.90;91.10
43503;BME280;29098;48.184;16.298;2024-03-07T06:12:50;99652.78;;;5.98;91.15
43503;BME280;29098;48.184;16.298;2024-03-07T06:15:16;99670.84;;;6.01;91.26
43503;BME280;29098;48.184;16.298;2024-03-07T06:17:42;99625.16;;;5.85;90.85
43503;BME280;29098;48.184;16.298;2024-03-07T06:20:14;99680.06;;;6.05;91.30
43503;BME280;29098;48.184;16.298;2024-03-07T06:22:50;99656.75;;;6.12;89.63
43503;BME280;29098;48.184;16.298;2024-03-07T06:25:20;99672.50;;;6.02;89.65
43503;BME280;29098;48.184;16.298;2024-03-07T06:27:58;99663.66;;;6.13;89.49
43503;BME280;29098;48.184;16.298;2024-03-07T06:30:24;99684.59;;;6.13;89.41
43503;BME280;29098;48.184;16.298;2024-03-07T06:32:51;99620.31;;;5.90;88.76
43503;BME280;29098;48.184;16.298;2024-03-07T06:35:16;99655.44;;;5.88;89.07
43503;BME280;29098;48.184;16.298;2024-03-07T06:37:44;99665.91;;;5.88;90.05
43503;BME280;29098;48.184;16.298;2024-03-07T06:40:10;99646.47;;;5.90;88.16
43503;BME280;29098;48.184;16.298;2024-03-07T06:42:36;99670.44;;;6.06;88.71
43503;BME280;29098;48.184;16.298;2024-03-07T06:45:05;99673.06;;;6.06;88.20
43503;BME280;29098;48.184;16.298;2024-03-07T06:47:31;99677.84;;;6.10;87.94
43503;BME280;29098;48.184;16.298;2024-03-07T06:49:56;99693.69;;;6.09;88.39
43503;BME280;29098;48.184;16.298;2024-03-07T06:52:22;99637.53;;;5.93;86.14
43503;BME280;29098;48.184;16.298;2024-03-07T06:54:47;99647.06;;;6.22;87.20
43503;BME280;29098;48.184;16.298;2024-03-07T06:57:13;99673.06;;;6.06;86.91
43503;BME280;29098;48.184;16.298;2024-03-07T06:59:39;99712.75;;;6.57;86.15
43503;BME280;29098;48.184;16.298;2024-03-07T07:02:04;99687.47;;;6.66;84.19
43503;BME280;29098;48.184;16.298;2024-03-07T07:04:30;99670.41;;;6.62;84.51
43503;BME280;29098;48.184;16.298;2024-03-07T07:07:07;99668.38;;;6.55;88.54
43503;BME280;29098;48.184;16.298;2024-03-07T07:09:36;99721.38;;;6.67;86.45
43503;BME280;29098;48.184;16.298;2024-03-07T07:12:01;99659.91;;;6.43;86.85
43503;BME280;29098;48.184;16.298;2024-03-07T07:14:27;99716.59;;;6.63;84.80
43503;BME280;29098;48.184;16.298;2024-03-07T07:16:53;99708.19;;;6.59;84.79
43503;BME280;29098;48.184;16.298;2024-03-07T07:19:19;99709.66;;;6.71;85.17
43503;BME280;29098;48.184;16.298;2024-03-07T07:21:44;99677.22;;;6.54;84.95
43503;BME280;29098;48.184;16.298;2024-03-07T07:24:10;99667.03;;;6.51;85.56
43503;BME280;29098;48.184;16.298;2024-03-07T07:26:36;99702.00;;;6.78;83.86
43503;BME280;29098;48.184;16.298;2024-03-07T07:29:01;99646.59;;;6.37;84.26
43503;BME280;29098;48.184;16.298;2024-03-07T07:31:29;99680.28;;;6.50;83.37
43503;BME280;29098;48.184;16.298;2024-03-07T07:33:55;99709.19;;;6.58;82.23
43503;BME280;29098;48.184;16.298;2024-03-07T07:36:20;99722.41;;;6.56;82.94
43503;BME280;29098;48.184;16.298;2024-03-07T07:38:46;99677.66;;;6.22;83.52
43503;BME280;29098;48.184;16.298;2024-03-07T07:41:12;99687.19;;;6.41;83.40
43503;BME280;29098;48.184;16.298;2024-03-07T07:43:39;99626.25;;;6.21;83.18
43503;BME280;29098;48.184;16.298;2024-03-07T07:46:05;99697.59;;;6.61;84.29
43503;BME280;29098;48.184;16.298;2024-03-07T07:48:31;99682.75;;;6.69;82.67
43503;BME280;29098;48.184;16.298;2024-03-07T07:50:56;99642.06;;;6.29;82.63
43503;BME280;29098;48.184;16.298;2024-03-07T07:53:22;99670.28;;;6.63;83.00
43503;BME280;29098;48.184;16.298;2024-03-07T07:55:47;99718.88;;;6.94;81.42
43503;BME280;29098;48.184;16.298;2024-03-07T07:58:14;99714.97;;;6.80;81.28
43503;BME280;29098;48.184;16.298;2024-03-07T08:00:40;99695.00;;;6.51;81.57
43503;BME280;29098;48.184;16.298;2024-03-07T08:03:08;99697.16;;;6.83;81.64
43503;BME280;29098;48.184;16.298;2024-03-07T08:05:35;99680.41;;;6.48;81.66
43503;BME280;29098;48.184;16.298;2024-03-07T08:08:05;99690.97;;;6.56;81.49
43503;BME280;29098;48.184;16.298;2024-03-07T08:10:34;99698.13;;;6.64;81.74
43503;BME280;29098;48.184;16.298;2024-03-07T08:13:01;99702.59;;;6.72;82.31
43503;BME280;29098;48.184;16.298;2024-03-07T08:15:29;99711.06;;;6.84;81.88
43503;BME280;29098;48.184;16.298;2024-03-07T08:17:55;99717.66;;;6.70;81.72
43503;BME280;29098;48.184;16.298;2024-03-07T08:20:22;99684.22;;;6.54;81.77
43503;BME280;29098;48.184;16.298;2024-03-07T08:22:51;99697.16;;;6.83;80.50
43503;BME280;29098;48.184;16.298;2024-03-07T08:25:19;99676.16;;;6.47;80.84
43503;BME280;29098;48.184;16.298;2024-03-07T08:27:48;99691.88;;;6.93;78.49
43503;BME280;29098;48.184;16.298;2024-03-07T08:30:14;99679.78;;;6.82;77.93
43503;BME280;29098;48.184;16.298;2024-03-07T08:32:49;99674.75;;;6.71;77.62
43503;BME280;29098;48.184;16.298;2024-03-07T08:35:15;99685.03;;;7.01;77.99
43503;BME280;29098;48.184;16.298;2024-03-07T08:37:43;99705.72;;;7.04;77.38
43503;BME280;29098;48.184;16.298;2024-03-07T08:40:10;99676.34;;;7.00;77.28
43503;BME280;29098;48.184;16.298;2024-03-07T08:42:40;99658.06;;;7.08;77.52
43503;BME280;29098;48.184;16.298;2024-03-07T08:45:07;99705.78;;;7.30;73.94
43503;BME280;29098;48.184;16.298;2024-03-07T08:47:36;99718.75;;;7.32;73.77
43503;BME280;29098;48.184;16.298;2024-03-07T08:50:02;99693.56;;;7.21;73.74
43503;BME280;29098;48.184;16.298;2024-03-07T08:52:33;99678.50;;;7.41;73.15
43503;BME280;29098;48.184;16.298;2024-03-07T08:55:02;99671.72;;;7.57;72.65
43503;BME280;29098;48.184;16.298;2024-03-07T08:57:28;99672.56;;;7.65;70.30
43503;BME280;29098;48.184;16.298;2024-03-07T08:59:53;99653.66;;;7.35;71.81
43503;BME280;29098;48.184;16.298;2024-03-07T09:02:19;99650.63;;;7.40;71.10
43503;BME280;29098;48.184;16.298;2024-03-07T09:04:44;99651.84;;;7.54;70.52
43503;BME280;29098;48.184;16.298;2024-03-07T09:07:10;99665.00;;;7.62;70.38
43503;BME280;29098;48.184;16.298;2024-03-07T09:09:35;99662.91;;;7.66;70.01
43503;BME280;29098;48.184;16.298;2024-03-07T09:12:01;99702.16;;;7.76;70.32
43503;BME280;29098;48.184;16.298;2024-03-07T09:14:28;99650.66;;;7.75;69.03
43503;BME280;29098;48.184;16.298;2024-03-07T09:16:53;99687.84;;;7.97;69.65
43503;BME280;29098;48.184;16.298;2024-03-07T09:19:19;99661.22;;;7.83;69.10
43503;BME280;29098;48.184;16.298;2024-03-07T09:21:52;99660.44;;;7.99;68.22
43503;BME280;29098;48.184;16.298;2024-03-07T09:24:19;99665.19;;;7.95;66.90
43503;BME280;29098;48.184;16.298;2024-03-07T09:26:51;99642.19;;;7.89;66.72
43503;BME280;29098;48.184;16.298;2024-03-07T09:29:18;99652.31;;;8.11;66.79
43503;BME280;29098;48.184;16.298;2024-03-07T09:31:49;99633.13;;;8.18;65.36
43503;BME280;29098;48.184;16.298;2024-03-07T09:34:14;99699.78;;;8.60;66.41
43503;BME280;29098;48.184;16.298;2024-03-07T09:36:40;99677.34;;;8.83;64.96
43503;BME280;29098;48.184;16.298;2024-03-07T09:39:07;99672.19;;;8.56;65.13
43503;BME280;29098;48.184;16.298;2024-03-07T09:41:33;99702.28;;;8.79;65.01
43503;BME280;29098;48.184;16.298;2024-03-07T09:43:59;99629.16;;;8.06;64.96
43503;BME280;29098;48.184;16.298;2024-03-07T09:46:26;99688.44;;;8.17;65.04
43503;BME280;29098;48.184;16.298;2024-03-07T09:48:53;99710.03;;;8.37;65.38
43503;BME280;29098;48.184;16.298;2024-03-07T09:51:23;99693.78;;;7.99;65.25
43503;BME280;29098;48.184;16.298;2024-03-07T09:53:50;99678.53;;;8.02;66.62
43503;BME280;29098;48.184;16.298;2024-03-07T09:56:20;99703.47;;;8.41;65.32
43503;BME280;29098;48.184;16.298;2024-03-07T09:58:50;99720.91;;;8.16;66.94
43503;BME280;29098;48.184;16.298;2024-03-07T10:01:20;99697.81;;;7.93;67.01
43503;BME280;29098;48.184;16.298;2024-03-07T10:03:47;99721.09;;;8.14;66.33
43503;BME280;29098;48.184;16.298;2024-03-07T10:06:13;99709.72;;;8.05;67.40
43503;BME280;29098;48.184;16.298;2024-03-07T10:08:40;99709.09;;;8.12;67.44
43503;BME280;29098;48.184;16.298;2024-03-07T10:11:07;99683.09;;;8.00;67.63
43503;BME280;29098;48.184;16.298;2024-03-07T10:13:34;99707.19;;;7.95;68.31
43503;BME280;29098;48.184;16.298;2024-03-07T10:16:01;99671.00;;;7.81;68.31
43503;BME280;29098;48.184;16.298;2024-03-07T10:18:26;99728.28;;;8.12;67.55
43503;BME280;29098;48.184;16.298;2024-03-07T10:20:56;99672.31;;;7.77;68.26
43503;BME280;29098;48.184;16.298;2024-03-07T10:23:22;99720.31;;;7.95;68.60
43503;BME280;29098;48.184;16.298;2024-03-07T10:25:47;99662.84;;;7.58;68.98
43503;BME280;29098;48.184;16.298;2024-03-07T10:28:13;99695.47;;;7.81;70.02
43503;BME280;29098;48.184;16.298;2024-03-07T10:30:43;99669.38;;;7.80;68.65
43503;BME280;29098;48.184;16.298;2024-03-07T10:33:12;99689.91;;;8.19;70.06
43503;BME280;29098;48.184;16.298;2024-03-07T10:35:38;99714.19;;;8.48;69.62
43503;BME280;29098;48.184;16.298;2024-03-07T10:38:04;99680.78;;;8.32;69.18
43503;BME280;29098;48.184;16.298;2024-03-07T10:40:33;99689.84;;;8.46;69.55
43503;BME280;29098;48.184;16.298;2024-03-07T10:43:01;99723.94;;;8.64;69.96
43503;BME280;29098;48.184;16.298;2024-03-07T10:45:39;99721.03;;;8.84;69.36
43503;BME280;29098;48.184;16.298;2024-03-07T10:48:11;99695.13;;;8.97;68.95
43503;BME280;29098;48.184;16.298;2024-03-07T10:56:17;99684.53;;;8.81;65.57
43503;BME280;29098;48.184;16.298;2024-03-07T11:01:01;99690.00;;;8.36;68.53
43503;BME280;29098;48.184;16.298;2024-03-07T11:03:31;99705.22;;;8.59;68.15
43503;BME280;29098;48.184;16.298;2024-03-07T11:05:58;99714.00;;;8.49;68.76
43503;BME280;29098;48.184;16.298;2024-03-07T11:08:25;99688.63;;;8.23;68.40
43503;BME280;29098;48.184;16.298;2024-03-07T11:10:51;99689.59;;;8.14;69.10
43503;BME280;29098;48.184;16.298;2024-03-07T11:13:17;99711.22;;;8.08;68.92
43503;BME280;29098;48.184;16.298;2024-03-07T11:15:46;99676.53;;;7.70;69.58
43503;BME280;29098;48.184;16.298;2024-03-07T11:18:13;99665.06;;;7.71;69.57
43503;BME280;29098;48.184;16.298;2024-03-07T11:20:40;99672.31;;;7.77;70.51
43503;BME280;29098;48.184;16.298;2024-03-07T11:23:24;99706.34;;;7.87;70.61
43503;BME280;29098;48.184;16.298;2024-03-07T11:26:05;99694.88;;;7.43;71.38
43503;BME280;29098;48.184;16.298;2024-03-07T11:28:39;99690.50;;;7.25;71.97
43503;BME280;29098;48.184;16.298;2024-03-07T11:31:09;99727.81;;;7.37;72.80
43503;BME280;29098;48.184;16.298;2024-03-07T11:33:37;99694.47;;;7.11;73.83
43503;BME280;29098;48.184;16.298;2024-03-07T11:36:06;99699.03;;;7.09;73.83
43503;BME280;29098;48.184;16.298;2024-03-07T11:38:32;99706.34;;;7.42;73.92
43503;BME280;29098;48.184;16.298;2024-03-07T11:41:00;99713.84;;;7.37;75.83
43503;BME280;29098;48.184;16.298;2024-03-07T11:43:30;99644.72;;;7.20;74.28
43503;BME280;29098;48.184;16.298;2024-03-07T11:45:56;99649.88;;;7.11;74.51
43503;BME280;29098;48.184;16.298;2024-03-07T11:48:23;99705.56;;;7.05;74.98
43503;BME280;29098;48.184;16.298;2024-03-07T11:50:48;99699.78;;;7.20;75.19
43503;BME280;29098;48.184;16.298;2024-03-07T11:53:14;99714.69;;;7.01;76.14
43503;BME280;29098;48.184;16.298;2024-03-07T11:55:41;99672.44;;;6.68;76.52
43503;BME280;29098;48.184;16.298;2024-03-07T11:58:17;99666.78;;;6.91;76.32
43503;BME280;29098;48.184;16.298;2024-03-07T12:00:43;99690.47;;;6.71;77.26
43503;BME280;29098;48.184;16.298;2024-03-07T12:03:13;99713.94;;;6.91;77.43
43503;BME280;29098;48.184;16.298;2024-03-07T12:05:41;99685.38;;;6.69;77.53
43503;BME280;29098;48.184;16.298;2024-03-07T12:08:07;99690.09;;;6.66;77.46
43503;BME280;29098;48.184;16.298;2024-03-07T12:10:35;99703.75;;;6.88;76.96
43503;BME280;29098;48.184;16.298;2024-03-07T12:13:01;99649.97;;;6.47;78.01
43503;BME280;29098;48.184;16.298;2024-03-07T12:15:27;99656.09;;;6.38;78.27
43503;BME280;29098;48.184;16.298;2024-03-07T12:17:53;99684.72;;;6.67;78.18
43503;BME280;29098;48.184;16.298;2024-03-07T12:20:19;99698.25;;;6.63;77.98
43503;BME280;29098;48.184;16.298;2024-03-07T12:22:55;99685.38;;;6.51;78.62
43503;BME280;29098;48.184;16.298;2024-03-07T12:25:22;99694.91;;;6.42;78.19
43503;BME280;29098;48.184;16.298;2024-03-07T12:28:12;99682.13;;;6.57;77.83
43503;BME280;29098;48.184;16.298;2024-03-07T12:33:12;99681.06;;;6.50;78.94
43503;BME280;29098;48.184;16.298;2024-03-07T12:35:44;99693.81;;;6.45;78.65
43503;BME280;29098;48.184;16.298;2024-03-07T12:38:11;99640.47;;;6.18;79.07
43503;BME280;29098;48.184;16.298;2024-03-07T12:40:40;99693.00;;;6.63;78.83
43503;BME280;29098;48.184;16.298;2024-03-07T12:43:17;99639.69;;;6.54;79.25
43503;BME280;29098;48.184;16.298;2024-03-07T12:45:52;99678.75;;;6.75;77.84
43503;BME280;29098;48.184;16.298;2024-03-07T12:48:19;99688.00;;;6.51;78.05
43503;BME280;29098;48.184;16.298;2024-03-07T12:50:47;99652.97;;;6.52;78.03
43503;BME280;29098;48.184;16.298;2024-03-07T12:53:15;99639.38;;;6.67;77.26
43503;BME280;29098;48.184;16.298;2024-03-07T12:55:43;99689.81;;;6.69;77.42
43503;BME280;29098;48.184;16.298;2024-03-07T12:58:09;99671.00;;;6.55;77.14
43503;BME280;29098;48.184;16.298;2024-03-07T13:00:38;99685.72;;;6.56;77.27
43503;BME280;29098;48.184;16.298;2024-03-07T13:03:06;99689.06;;;6.58;78.11
43503;BME280;29098;48.184;16.298;2024-03-07T13:05:32;99699.97;;;6.72;76.98
43503;BME280;29098;48.184;16.298;2024-03-07T13:07:57;99682.03;;;6.77;76.66